Time;durP1;ratioP1;P1;durP2;ratioP2;P2;SDS_P1;SDS_P2;PMS_P1;PMS_P2;Temp;Humidity;BMP_temperature;BMP_pressure;BME280_temperature;BME280_humidity;BME280_pressure;Samples;Min_cycle;Max_cycle;Signal;HPM_P1;HPM_P2
2021/11/26 00:01:43;;;;;;;21.88;3.25;;;;;;;;;;5019740;28;20412;-64
2021/11/26 00:04:09;;;;;;;16.63;3.28;;;;;;;;;;5020712;28;20021;-63
2021/11/26 00:06:35;;;;;;;18.52;2.95;;;;;;;;;;5017705;28;20458;-64
2021/11/26 00:09:01;;;;;;;34.85;4.10;;;;;;;;;;5014578;28;20125;-63
2021/11/26 00:11:27;;;;;;;32.60;3.65;;;;;;;;;;5018425;28;20049;-64
2021/11/26 00:14:05;;;;;;;18.80;2.92;;;;;;;;;;5021935;28;20045;-64
2021/11/26 00:16:42;;;;;;;19.00;3.38;;;;;;;;;;5020210;28;20474;-64
2021/11/26 00:19:08;;;;;;;24.65;4.25;;;;;;;;;;5015961;28;20559;-63
2021/11/26 00:21:36;;;;;;;17.40;3.42;;;;;;;;;;5021843;28;20033;-65
2021/11/26 00:24:02;;;;;;;23.83;4.07;;;;;;;;;;5016004;28;20516;-64
2021/11/26 00:26:28;;;;;;;24.23;4.25;;;;;;;;;;5023413;28;20466;-64
2021/11/26 00:28:54;;;;;;;16.15;2.95;;;;;;;;;;5019566;28;20033;-64
2021/11/26 00:31:19;;;;;;;31.90;4.43;;;;;;;;;;5017240;28;20120;-63
2021/11/26 00:33:45;;;;;;;31.95;3.97;;;;;;;;;;5021262;28;20493;-64
2021/11/26 00:36:10;;;;;;;31.67;4.28;;;;;;;;;;5017385;28;20021;-64
2021/11/26 00:38:36;;;;;;;20.17;3.60;;;;;;;;;;5025389;28;20033;-64
2021/11/26 00:41:02;;;;;;;23.70;4.38;;;;;;;;;;5016323;28;20515;-65
2021/11/26 00:43:28;;;;;;;27.63;3.95;;;;;;;;;;5025642;28;20037;-63
2021/11/26 00:45:54;;;;;;;31.58;4.43;;;;;;;;;;5020691;28;20025;-64
2021/11/26 00:48:19;;;;;;;17.95;3.28;;;;;;;;;;5015054;28;20038;-64
2021/11/26 00:50:47;;;;;;;27.52;3.35;;;;;;;;;;5021628;28;20054;-65
2021/11/26 00:53:12;;;;;;;22.17;3.20;;;;;;;;;;5022348;28;20037;-64
2021/11/26 00:55:39;;;;;;;17.00;3.38;;;;;;;;;;5019476;28;20064;-64
2021/11/26 00:58:05;;;;;;;26.50;2.92;;;;;;;;;;5014128;28;20038;-63
2021/11/26 01:00:31;;;;;;;33.45;3.78;;;;;;;;;;5018849;28;20129;-64
2021/11/26 01:02:58;;;;;;;28.88;3.25;;;;;;;;;;5017710;28;20037;-64
2021/11/26 01:05:23;;;;;;;12.63;2.35;;;;;;;;;;5017687;28;20410;-63
2021/11/26 01:07:49;;;;;;;25.77;4.30;;;;;;;;;;5021056;28;20116;-64
2021/11/26 01:10:19;;;;;;;12.30;3.08;;;;;;;;;;5019009;28;20496;-64
2021/11/26 01:12:46;;;;;;;50.70;3.97;;;;;;;;;;5011655;28;20022;-64
2021/11/26 01:15:15;;;;;;;20.85;3.00;;;;;;;;;;5014956;28;20417;-64
2021/11/26 01:17:41;;;;;;;24.45;3.38;;;;;;;;;;5018699;28;20018;-63
2021/11/26 01:20:11;;;;;;;7.70;1.73;;;;;;;;;;5019310;28;20041;-64
2021/11/26 01:22:37;;;;;;;15.77;2.10;;;;;;;;;;5017788;28;20022;-65
2021/11/26 01:25:04;;;;;;;13.15;2.05;;;;;;;;;;5019997;28;20021;-64
2021/11/26 01:27:29;;;;;;;11.07;2.25;;;;;;;;;;5019092;28;20061;-64
2021/11/26 01:29:55;;;;;;;17.35;2.33;;;;;;;;;;5017744;28;20061;-64
2021/11/26 01:32:21;;;;;;;20.70;3.58;;;;;;;;;;5021144;28;20465;-65
2021/11/26 01:34:46;;;;;;;8.48;1.77;;;;;;;;;;5020069;28;20144;-64
2021/11/26 01:37:11;;;;;;;16.27;2.13;;;;;;;;;;5014893;28;20501;-65
2021/11/26 01:39:37;;;;;;;7.20;1.63;;;;;;;;;;5014537;28;20626;-64
2021/11/26 01:42:03;;;;;;;13.73;2.58;;;;;;;;;;5021070;28;20038;-64
2021/11/26 01:44:29;;;;;;;12.52;2.28;;;;;;;;;;5019648;28;20095;-64
2021/11/26 01:46:54;;;;;;;7.57;1.85;;;;;;;;;;5020039;28;20276;-65
2021/11/26 01:49:20;;;;;;;19.80;2.53;;;;;;;;;;5016012;28;20473;-64
2021/11/26 01:51:45;;;;;;;19.63;2.13;;;;;;;;;;5019640;28;20427;-63
2021/11/26 01:54:11;;;;;;;22.23;2.40;;;;;;;;;;5016192;28;20046;-64
2021/11/26 01:56:37;;;;;;;25.13;2.53;;;;;;;;;;5017878;28;20033;-63
2021/11/26 01:59:03;;;;;;;14.60;1.60;;;;;;;;;;5018860;28;20037;-62
2021/11/26 02:01:29;;;;;;;28.98;3.50;;;;;;;;;;5017519;28;20033;-63
2021/11/26 02:03:54;;;;;;;20.63;2.65;;;;;;;;;;5019918;28;20088;-63
2021/11/26 02:06:20;;;;;;;13.45;2.97;;;;;;;;;;5018355;28;20448;-64
2021/11/26 02:08:48;;;;;;;10.73;2.00;;;;;;;;;;5018752;28;20108;-63
2021/11/26 02:11:14;;;;;;;15.90;2.33;;;;;;;;;;5020539;28;20041;-63
2021/11/26 02:13:39;;;;;;;10.02;3.00;;;;;;;;;;5021604;28;20036;-63
2021/11/26 02:16:05;;;;;;;12.18;2.45;;;;;;;;;;5013832;28;20082;-64
2021/11/26 02:18:30;;;;;;;12.05;2.20;;;;;;;;;;5015488;28;20030;-65
2021/11/26 02:20:56;;;;;;;13.52;2.15;;;;;;;;;;5017694;28;20031;-65
2021/11/26 02:23:22;;;;;;;17.75;2.20;;;;;;;;;;5019249;28;20033;-62
2021/11/26 02:25:48;;;;;;;11.48;1.92;;;;;;;;;;5020435;28;20421;-63
2021/11/26 02:28:17;;;;;;;14.15;2.88;;;;;;;;;;5015328;28;20428;-64
2021/11/26 02:30:43;;;;;;;16.58;1.30;;;;;;;;;;5019699;28;20036;-64
2021/11/26 02:33:14;;;;;;;9.65;1.38;;;;;;;;;;5010476;28;20038;-64
2021/11/26 02:35:41;;;;;;;14.40;1.60;;;;;;;;;;5021055;28;20540;-65
2021/11/26 02:38:10;;;;;;;9.30;1.48;;;;;;;;;;5020603;28;20109;-65
2021/11/26 02:40:38;;;;;;;20.13;1.65;;;;;;;;;;5019011;28;20025;-65
2021/11/26 02:43:04;;;;;;;14.70;1.98;;;;;;;;;;5010455;28;20442;-65
2021/11/26 02:45:30;;;;;;;9.32;1.48;;;;;;;;;;5012532;28;20026;-63
2021/11/26 02:47:56;;;;;;;9.75;1.30;;;;;;;;;;5019869;28;20029;-63
2021/11/26 02:50:24;;;;;;;16.83;1.80;;;;;;;;;;5015666;28;20160;-63
2021/11/26 02:52:50;;;;;;;19.75;2.50;;;;;;;;;;5015821;28;20026;-64
2021/11/26 02:55:19;;;;;;;12.27;1.38;;;;;;;;;;5015869;28;20075;-64
2021/11/26 02:57:45;;;;;;;8.82;1.60;;;;;;;;;;5017185;28;20514;-64
2021/11/26 03:00:14;;;;;;;14.98;1.55;;;;;;;;;;5010628;28;20038;-64
2021/11/26 03:02:40;;;;;;;13.27;1.25;;;;;;;;;;5017674;28;20053;-63
2021/11/26 03:05:06;;;;;;;13.45;1.63;;;;;;;;;;5017103;28;20026;-64
2021/11/26 03:07:31;;;;;;;14.30;2.35;;;;;;;;;;5017822;28;20028;-63
2021/11/26 03:09:57;;;;;;;17.83;1.45;;;;;;;;;;5015285;28;20032;-63
2021/11/26 03:12:23;;;;;;;13.18;1.52;;;;;;;;;;5018158;28;20108;-63
2021/11/26 03:14:48;;;;;;;20.02;2.03;;;;;;;;;;5017834;28;20061;-64
2021/11/26 03:17:15;;;;;;;24.35;2.00;;;;;;;;;;5020360;28;20109;-65
2021/11/26 03:19:40;;;;;;;11.32;1.45;;;;;;;;;;5020706;28;20046;-65
2021/11/26 03:22:06;;;;;;;24.92;1.70;;;;;;;;;;5045948;28;20638;-64
2021/11/26 03:24:32;;;;;;;12.43;2.45;;;;;;;;;;5020708;28;20040;-63
2021/11/26 03:26:57;;;;;;;23.83;3.05;;;;;;;;;;5021457;28;20033;-64
2021/11/26 03:29:23;;;;;;;13.18;1.05;;;;;;;;;;5017006;28;20524;-64
2021/11/26 03:31:48;;;;;;;19.10;2.35;;;;;;;;;;5028782;28;20041;-64
2021/11/26 03:34:14;;;;;;;8.95;1.10;;;;;;;;;;5019285;28;20041;-64
2021/11/26 03:36:39;;;;;;;12.35;1.10;;;;;;;;;;5020143;28;20029;-63
2021/11/26 03:39:05;;;;;;;21.25;2.17;;;;;;;;;;5022442;28;20033;-63
2021/11/26 03:41:31;;;;;;;13.48;1.85;;;;;;;;;;5019047;28;20029;-66
2021/11/26 03:43:57;;;;;;;21.05;1.33;;;;;;;;;;5020237;28;20692;-64
2021/11/26 03:46:23;;;;;;;32.13;2.05;;;;;;;;;;5015615;28;20241;-65
2021/11/26 03:48:49;;;;;;;12.88;1.73;;;;;;;;;;5020417;28;20522;-65
2021/11/26 03:51:14;;;;;;;11.13;1.77;;;;;;;;;;5023315;28;20057;-64
2021/11/26 03:53:40;;;;;;;16.63;1.90;;;;;;;;;;5013617;28;20090;-64
2021/11/26 03:56:06;;;;;;;13.10;1.20;;;;;;;;;;5020727;28;20069;-65
2021/11/26 03:58:32;;;;;;;14.27;1.38;;;;;;;;;;5020401;28;20419;-66
2021/11/26 04:00:57;;;;;;;14.07;2.05;;;;;;;;;;5023788;28;20025;-65
2021/11/26 04:03:23;;;;;;;15.68;1.83;;;;;;;;;;5015821;28;20401;-64
2021/11/26 04:05:49;;;;;;;20.67;2.88;;;;;;;;;;5019525;28;20396;-64
2021/11/26 04:08:14;;;;;;;17.88;1.63;;;;;;;;;;5021435;28;20156;-68
2021/11/26 04:10:40;;;;;;;12.48;1.77;;;;;;;;;;5016385;28;20030;-67
2021/11/26 04:13:08;;;;;;;11.00;1.42;;;;;;;;;;5016670;28;20036;-67
2021/11/26 04:15:37;;;;;;;18.50;2.72;;;;;;;;;;5017989;28;20045;-68
2021/11/26 04:18:06;;;;;;;20.67;2.20;;;;;;;;;;5022205;28;20420;-67
2021/11/26 04:20:33;;;;;;;8.95;2.45;;;;;;;;;;5017228;28;20033;-67
2021/11/26 04:23:00;;;;;;;4.10;1.67;;;;;;;;;;5025974;28;20039;-68
2021/11/26 04:25:26;;;;;;;15.48;1.50;;;;;;;;;;5023226;28;20133;-69
2021/11/26 04:27:52;;;;;;;14.15;2.22;;;;;;;;;;5018755;28;20172;-65
2021/11/26 04:30:20;;;;;;;20.00;2.35;;;;;;;;;;5018448;28;20058;-64
2021/11/26 04:32:47;;;;;;;8.80;2.00;;;;;;;;;;5020423;28;20025;-64
2021/11/26 04:35:12;;;;;;;13.38;2.28;;;;;;;;;;5020313;28;20495;-63
2021/11/26 04:37:39;;;;;;;24.08;2.13;;;;;;;;;;5020232;28;20033;-64
2021/11/26 04:40:08;;;;;;;45.28;2.70;;;;;;;;;;5023704;28;20052;-64
2021/11/26 04:42:34;;;;;;;16.90;3.13;;;;;;;;;;5022356;28;20034;-63
2021/11/26 04:44:59;;;;;;;14.35;1.88;;;;;;;;;;5019663;28;20025;-64
2021/11/26 04:47:25;;;;;;;17.90;3.10;;;;;;;;;;5015251;28;20160;-64
2021/11/26 04:49:50;;;;;;;21.77;1.75;;;;;;;;;;5021117;28;20059;-64
2021/11/26 04:52:16;;;;;;;17.08;1.52;;;;;;;;;;5021925;28;20280;-64
2021/11/26 04:54:41;;;;;;;18.83;2.45;;;;;;;;;;5018146;28;20075;-64
2021/11/26 04:57:07;;;;;;;22.95;2.42;;;;;;;;;;5019169;28;20431;-64
2021/11/26 04:59:33;;;;;;;17.90;1.88;;;;;;;;;;5016623;28;20033;-63
2021/11/26 05:01:58;;;;;;;15.15;1.63;;;;;;;;;;5021422;28;20100;-64
2021/11/26 05:04:24;;;;;;;24.60;3.60;;;;;;;;;;5019220;28;20041;-64
2021/11/26 05:06:49;;;;;;;14.30;2.97;;;;;;;;;;5016278;28;20029;-64
2021/11/26 05:09:15;;;;;;;18.75;1.92;;;;;;;;;;5017594;28;20037;-62
2021/11/26 05:11:40;;;;;;;24.13;2.55;;;;;;;;;;5021068;28;20043;-63
2021/11/26 05:14:08;;;;;;;24.85;2.08;;;;;;;;;;5017624;28;20504;-64
2021/11/26 05:16:33;;;;;;;21.80;1.67;;;;;;;;;;5014330;28;20767;-65
2021/11/26 05:18:59;;;;;;;19.42;1.35;;;;;;;;;;5017850;28;20382;-65
2021/11/26 05:21:25;;;;;;;9.75;0.70;;;;;;;;;;5017929;28;20061;-64
2021/11/26 05:23:50;;;;;;;12.68;1.45;;;;;;;;;;5014101;28;20025;-64
2021/11/26 05:26:16;;;;;;;20.23;1.27;;;;;;;;;;5016133;28;20212;-63
2021/11/26 05:28:42;;;;;;;6.13;1.10;;;;;;;;;;5018588;28;20056;-63
2021/11/26 05:31:07;;;;;;;12.18;0.73;;;;;;;;;;5020947;28;20029;-64
2021/11/26 05:33:33;;;;;;;7.22;0.65;;;;;;;;;;5013858;28;20033;-64
2021/11/26 05:35:59;;;;;;;13.27;0.52;;;;;;;;;;5017276;28;20141;-63
2021/11/26 05:38:25;;;;;;;7.68;0.47;;;;;;;;;;5019056;28;20079;-64
2021/11/26 05:40:51;;;;;;;10.07;0.77;;;;;;;;;;5019024;28;20033;-66
2021/11/26 05:43:16;;;;;;;12.65;0.50;;;;;;;;;;5013325;28;20033;-65
2021/11/26 05:45:43;;;;;;;15.13;0.82;;;;;;;;;;5016511;28;20033;-66
2021/11/26 05:48:08;;;;;;;7.57;0.50;;;;;;;;;;5019378;28;20462;-64
2021/11/26 05:50:34;;;;;;;5.45;0.80;;;;;;;;;;5017817;28;20041;-65
2021/11/26 05:53:00;;;;;;;5.20;0.32;;;;;;;;;;5018011;28;20037;-66
2021/11/26 05:55:27;;;;;;;9.23;0.73;;;;;;;;;;5019612;28;20034;-65
2021/11/26 05:57:54;;;;;;;7.07;0.30;;;;;;;;;;5016591;28;20033;-65
2021/11/26 06:00:22;;;;;;;5.22;0.47;;;;;;;;;;5013156;28;20037;-64
2021/11/26 06:02:49;;;;;;;8.52;0.77;;;;;;;;;;5013232;28;20288;-65
2021/11/26 06:05:14;;;;;;;5.72;0.90;;;;;;;;;;5016885;28;20017;-65
2021/11/26 06:07:40;;;;;;;17.40;1.58;;;;;;;;;;5017787;28;20037;-65
2021/11/26 06:10:10;;;;;;;17.35;2.55;;;;;;;;;;5017748;28;20099;-65
2021/11/26 06:12:37;;;;;;;15.43;1.15;;;;;;;;;;5014816;28;20084;-64
2021/11/26 06:15:03;;;;;;;8.70;0.43;;;;;;;;;;5016488;28;20092;-64
2021/11/26 06:17:29;;;;;;;18.42;1.77;;;;;;;;;;5016017;28;20065;-65
2021/11/26 06:19:54;;;;;;;21.65;0.90;;;;;;;;;;5015670;28;20092;-63
2021/11/26 06:22:20;;;;;;;11.07;1.02;;;;;;;;;;5018526;28;20038;-64
2021/11/26 06:24:45;;;;;;;13.55;1.15;;;;;;;;;;5018003;28;20057;-65
2021/11/26 06:27:11;;;;;;;27.52;1.48;;;;;;;;;;5018217;28;20041;-65
2021/11/26 06:29:37;;;;;;;20.05;1.10;;;;;;;;;;5017617;28;20037;-65
2021/11/26 06:32:02;;;;;;;11.40;0.88;;;;;;;;;;5015277;28;20044;-64
2021/11/26 06:34:28;;;;;;;12.70;1.00;;;;;;;;;;5021148;28;20076;-64
2021/11/26 06:36:53;;;;;;;16.50;1.00;;;;;;;;;;5015398;28;20124;-65
2021/11/26 06:39:19;;;;;;;15.98;0.80;;;;;;;;;;5019552;28;20103;-65
2021/11/26 06:41:44;;;;;;;11.85;1.38;;;;;;;;;;5014356;28;20029;-66
2021/11/26 06:44:10;;;;;;;16.17;1.30;;;;;;;;;;5019476;28;20033;-66
2021/11/26 06:46:35;;;;;;;18.88;0.93;;;;;;;;;;5012766;28;20033;-64
2021/11/26 06:49:01;;;;;;;16.70;1.13;;;;;;;;;;5024853;28;20291;-65
2021/11/26 06:51:26;;;;;;;18.42;2.67;;;;;;;;;;5016403;28;20416;-65
2021/11/26 06:53:54;;;;;;;10.85;1.02;;;;;;;;;;5017817;28;20039;-64
2021/11/26 06:56:20;;;;;;;36.47;2.80;;;;;;;;;;5019731;28;20055;-65
2021/11/26 06:58:45;;;;;;;14.55;0.77;;;;;;;;;;5019668;28;20041;-65
2021/11/26 07:01:12;;;;;;;18.00;1.45;;;;;;;;;;5015092;28;20128;-65
2021/11/26 07:03:38;;;;;;;16.38;1.95;;;;;;;;;;5016022;28;20109;-65
2021/11/26 07:06:03;;;;;;;28.55;1.98;;;;;;;;;;5018946;28;20136;-65
2021/11/26 07:08:29;;;;;;;23.75;1.58;;;;;;;;;;5018880;28;20046;-64
2021/11/26 07:10:54;;;;;;;25.35;1.05;;;;;;;;;;5019731;28;20037;-64
2021/11/26 07:13:20;;;;;;;17.60;1.70;;;;;;;;;;5016272;28;20025;-64
2021/11/26 07:15:47;;;;;;;29.48;3.92;;;;;;;;;;5016432;28;20030;-64
2021/11/26 07:18:12;;;;;;;17.65;1.23;;;;;;;;;;5016097;28;20037;-65
2021/11/26 07:20:40;;;;;;;14.93;1.52;;;;;;;;;;5017161;28;20040;-69
2021/11/26 07:23:06;;;;;;;21.67;1.73;;;;;;;;;;5013699;28;20368;-64
2021/11/26 07:25:31;;;;;;;27.08;1.50;;;;;;;;;;5019913;28;20272;-65
2021/11/26 07:27:57;;;;;;;23.80;1.85;;;;;;;;;;5018811;28;20084;-65
2021/11/26 07:30:23;;;;;;;31.58;2.80;;;;;;;;;;5018034;28;20041;-64
2021/11/26 07:32:48;;;;;;;24.85;1.70;;;;;;;;;;5017304;28;20025;-64
2021/11/26 07:35:14;;;;;;;19.23;1.67;;;;;;;;;;5024679;28;20021;-64
2021/11/26 07:37:42;;;;;;;20.50;3.03;;;;;;;;;;5016845;28;20397;-64
2021/11/26 07:40:11;;;;;;;20.48;2.08;;;;;;;;;;5023594;28;20043;-65
2021/11/26 07:42:41;;;;;;;17.33;1.10;;;;;;;;;;5020319;28;20048;-64
2021/11/26 07:45:08;;;;;;;32.90;2.13;;;;;;;;;;5012235;28;20072;-64
2021/11/26 07:47:34;;;;;;;17.92;2.13;;;;;;;;;;5022767;28;20173;-64
2021/11/26 07:49:59;;;;;;;32.63;2.30;;;;;;;;;;5023459;28;20492;-65
2021/11/26 07:52:25;;;;;;;26.30;2.75;;;;;;;;;;5016411;28;20437;-65
2021/11/26 07:54:51;;;;;;;10.80;2.67;;;;;;;;;;5012826;28;20030;-65
2021/11/26 07:57:16;;;;;;;31.98;2.03;;;;;;;;;;5018492;28;20033;-65
2021/11/26 07:59:42;;;;;;;20.20;1.80;;;;;;;;;;5016677;28;20028;-64
2021/11/26 08:02:07;;;;;;;20.65;1.85;;;;;;;;;;5017122;28;20026;-65
2021/11/26 08:04:33;;;;;;;32.60;2.97;;;;;;;;;;5025476;28;20492;-66
2021/11/26 08:06:59;;;;;;;33.53;2.33;;;;;;;;;;5015533;28;20378;-64
2021/11/26 08:09:25;;;;;;;26.95;3.05;;;;;;;;;;5016413;28;20099;-64
2021/11/26 08:11:52;;;;;;;19.75;2.45;;;;;;;;;;5021984;28;20033;-65
2021/11/26 08:14:18;;;;;;;26.83;2.55;;;;;;;;;;5025090;28;20045;-64
2021/11/26 08:16:45;;;;;;;30.60;3.17;;;;;;;;;;5018866;28;20400;-64
2021/11/26 08:19:10;;;;;;;36.00;3.65;;;;;;;;;;5016925;28;20029;-65
2021/11/26 08:21:37;;;;;;;34.58;3.92;;;;;;;;;;5019209;28;20029;-64
2021/11/26 08:24:03;;;;;;;30.10;2.60;;;;;;;;;;5019527;28;20040;-64
2021/11/26 08:26:29;;;;;;;41.90;3.08;;;;;;;;;;5019077;28;20042;-63
2021/11/26 08:28:56;;;;;;;32.75;3.67;;;;;;;;;;5020473;28;20029;-64
2021/11/26 08:31:22;;;;;;;20.02;2.13;;;;;;;;;;5016453;28;20507;-66
2021/11/26 08:33:47;;;;;;;34.15;2.97;;;;;;;;;;5014602;28;20034;-63
2021/11/26 08:36:13;;;;;;;21.20;2.75;;;;;;;;;;5017646;28;20037;-64
2021/11/26 08:38:38;;;;;;;18.73;2.65;;;;;;;;;;5013618;28;20492;-64
2021/11/26 08:41:04;;;;;;;60.58;6.82;;;;;;;;;;5020230;28;20029;-63
2021/11/26 08:43:30;;;;;;;32.35;3.42;;;;;;;;;;5022443;28;20653;-64
2021/11/26 08:45:55;;;;;;;50.22;4.20;;;;;;;;;;5023648;28;20057;-64
2021/11/26 08:48:21;;;;;;;40.08;3.63;;;;;;;;;;5025998;28;20033;-65
2021/11/26 08:50:46;;;;;;;43.80;4.57;;;;;;;;;;5019868;28;20488;-63
2021/11/26 08:53:13;;;;;;;35.03;3.50;;;;;;;;;;5019995;28;20037;-65
2021/11/26 08:55:45;;;;;;;34.90;3.80;;;;;;;;;;5013204;28;20038;-65
2021/11/26 08:58:13;;;;;;;38.93;3.07;;;;;;;;;;5014829;28;20025;-65
2021/11/26 09:00:39;;;;;;;46.13;3.58;;;;;;;;;;5015658;28;20378;-65
2021/11/26 09:03:06;;;;;;;45.03;3.08;;;;;;;;;;5022496;28;20033;-64
2021/11/26 09:05:32;;;;;;;39.80;4.90;;;;;;;;;;5020004;28;20259;-64
2021/11/26 09:08:02;;;;;;;50.42;4.00;;;;;;;;;;5021908;28;20029;-65
2021/11/26 09:10:36;;;;;;;38.53;3.03;;;;;;;;;;5017094;28;20045;-64
2021/11/26 09:13:04;;;;;;;26.02;2.50;;;;;;;;;;5020898;28;20507;-63
2021/11/26 09:15:31;;;;;;;43.95;2.40;;;;;;;;;;5020575;28;20489;-64
2021/11/26 09:17:56;;;;;;;36.60;2.65;;;;;;;;;;5021963;28;20491;-63
2021/11/26 09:20:22;;;;;;;34.25;2.88;;;;;;;;;;5022549;28;20056;-63
2021/11/26 09:22:49;;;;;;;27.05;2.85;;;;;;;;;;5023797;28;20386;-63
2021/11/26 09:25:15;;;;;;;37.05;3.20;;;;;;;;;;5020348;28;20203;-63
2021/11/26 09:27:41;;;;;;;39.05;2.42;;;;;;;;;;5018097;28;20033;-62
2021/11/26 09:30:09;;;;;;;29.65;2.78;;;;;;;;;;5023499;28;20424;-64
2021/11/26 09:32:35;;;;;;;33.70;2.78;;;;;;;;;;5022674;28;20041;-64
2021/11/26 09:35:01;;;;;;;41.15;3.78;;;;;;;;;;5021545;28;20061;-64
2021/11/26 09:37:26;;;;;;;30.02;2.42;;;;;;;;;;5021165;28;20060;-64
2021/11/26 09:39:53;;;;;;;37.28;5.57;;;;;;;;;;5021909;28;20394;-64
2021/11/26 09:42:20;;;;;;;43.35;3.15;;;;;;;;;;5024095;28;20087;-62
2021/11/26 09:44:45;;;;;;;34.13;2.58;;;;;;;;;;5015811;28;20519;-62
2021/11/26 09:47:12;;;;;;;46.63;3.20;;;;;;;;;;5022025;28;20034;-62
2021/11/26 09:49:38;;;;;;;35.47;2.22;;;;;;;;;;5014856;28;20531;-63
2021/11/26 09:52:04;;;;;;;46.42;3.03;;;;;;;;;;5021855;28;20057;-63
2021/11/26 09:54:42;;;;;;;19.77;1.80;;;;;;;;;;5015369;28;20045;-67
2021/11/26 09:57:09;;;;;;;30.23;2.72;;;;;;;;;;5017035;28;20036;-66
2021/11/26 09:59:35;;;;;;;26.10;2.05;;;;;;;;;;5020229;28;20072;-67
2021/11/26 10:02:15;;;;;;;22.92;2.25;;;;;;;;;;5021850;28;20516;-68
2021/11/26 10:04:41;;;;;;;24.33;2.83;;;;;;;;;;5020894;28;20039;-69
2021/11/26 10:07:08;;;;;;;29.85;3.42;;;;;;;;;;5018746;28;20492;-68
2021/11/26 10:09:36;;;;;;;21.55;1.83;;;;;;;;;;5016688;28;20044;-69
2021/11/26 10:12:13;;;;;;;21.35;1.95;;;;;;;;;;5021571;28;20553;-64
2021/11/26 10:14:41;;;;;;;26.27;1.90;;;;;;;;;;5014210;28;20071;-67
2021/11/26 10:17:25;;;;;;;21.38;2.00;;;;;;;;;;5016467;28;20033;-69
2021/11/26 10:19:58;;;;;;;19.55;1.90;;;;;;;;;;5017223;28;20034;-68
2021/11/26 10:22:33;;;;;;;11.20;1.50;;;;;;;;;;5018608;28;20045;-63
2021/11/26 10:25:16;;;;;;;24.58;1.67;;;;;;;;;;5020497;28;20079;-65
2021/11/26 10:28:02;;;;;;;20.30;2.40;;;;;;;;;;5012894;28;20481;-65
2021/11/26 10:30:38;;;;;;;19.67;2.05;;;;;;;;;;5012941;28;20139;-64
2021/11/26 10:33:23;;;;;;;19.20;2.15;;;;;;;;;;5016814;28;20112;-64
2021/11/26 10:35:59;;;;;;;20.13;2.08;;;;;;;;;;5012876;28;20037;-64
2021/11/26 10:38:31;;;;;;;15.88;2.08;;;;;;;;;;5015347;28;20060;-66
2021/11/26 10:41:24;;;;;;;11.82;1.40;;;;;;;;;;5016262;28;20029;-67
2021/11/26 10:43:54;;;;;;;11.50;1.15;;;;;;;;;;5017622;28;20345;-67
2021/11/26 10:57:41;;;;;;;18.58;2.65;;;;;;;;;;5020654;28;20099;-63
2021/11/26 11:00:19;;;;;;;31.90;2.25;;;;;;;;;;5020643;28;20021;-63
2021/11/26 11:02:47;;;;;;;22.10;2.22;;;;;;;;;;5017531;28;20690;-64
2021/11/26 11:05:25;;;;;;;29.75;2.50;;;;;;;;;;5012399;28;20033;-65
2021/11/26 11:07:51;;;;;;;21.63;2.33;;;;;;;;;;5019253;28;20585;-63
2021/11/26 11:10:31;;;;;;;30.40;3.08;;;;;;;;;;5016004;28;20084;-64
2021/11/26 11:12:59;;;;;;;32.80;2.85;;;;;;;;;;5019030;28;20029;-64
2021/11/26 11:15:25;;;;;;;21.15;2.33;;;;;;;;;;5015908;28;20485;-64
2021/11/26 11:17:51;;;;;;;21.50;2.10;;;;;;;;;;5013061;28;20037;-63
2021/11/26 11:20:19;;;;;;;24.67;3.72;;;;;;;;;;5011146;28;20049;-64
2021/11/26 11:22:46;;;;;;;12.35;1.88;;;;;;;;;;5015916;28;20490;-63
2021/11/26 11:25:17;;;;;;;33.08;2.92;;;;;;;;;;5018420;28;20447;-63
2021/11/26 11:27:42;;;;;;;21.05;1.73;;;;;;;;;;5018018;28;20083;-64
2021/11/26 11:30:10;;;;;;;23.88;2.10;;;;;;;;;;5017690;28;20033;-65
2021/11/26 11:32:38;;;;;;;15.68;2.33;;;;;;;;;;5019501;28;20487;-64
2021/11/26 11:35:11;;;;;;;16.20;1.45;;;;;;;;;;5013438;28;20517;-65
2021/11/26 11:37:38;;;;;;;13.48;1.65;;;;;;;;;;5019023;28;20061;-64
2021/11/26 11:40:08;;;;;;;26.80;3.05;;;;;;;;;;5012281;28;20116;-64
2021/11/26 11:42:43;;;;;;;23.58;2.55;;;;;;;;;;5026810;28;20040;-63
2021/11/26 11:45:12;;;;;;;21.83;1.88;;;;;;;;;;5020880;28;20045;-64
2021/11/26 11:47:45;;;;;;;7.55;1.58;;;;;;;;;;5023708;28;20030;-65
2021/11/26 11:50:13;;;;;;;21.27;2.20;;;;;;;;;;5025081;28;20385;-62
2021/11/26 11:53:00;;;;;;;30.20;2.58;;;;;;;;;;5016588;28;20036;-63
2021/11/26 11:55:26;;;;;;;12.63;1.95;;;;;;;;;;5017855;28;20025;-64
2021/11/26 11:57:56;;;;;;;13.88;1.92;;;;;;;;;;5018845;28;20386;-66
2021/11/26 12:00:23;;;;;;;23.60;2.45;;;;;;;;;;5018165;28;20030;-65
2021/11/26 12:02:50;;;;;;;25.90;2.55;;;;;;;;;;5019202;28;20120;-63
2021/11/26 12:05:28;;;;;;;14.43;1.23;;;;;;;;;;5022985;28;20108;-64
2021/11/26 12:08:08;;;;;;;14.73;1.63;;;;;;;;;;5019544;28;20041;-63
2021/11/26 12:11:00;;;;;;;14.73;1.75;;;;;;;;;;5017829;28;20036;-64
2021/11/26 12:13:34;;;;;;;27.20;2.90;;;;;;;;;;5021772;28;20049;-63
2021/11/26 12:16:12;;;;;;;11.63;1.33;;;;;;;;;;5022358;28;20037;-64
2021/11/26 12:18:40;;;;;;;18.75;1.73;;;;;;;;;;5021089;28;20465;-64
2021/11/26 12:21:06;;;;;;;10.80;1.30;;;;;;;;;;5020350;28;20293;-64
2021/11/26 12:23:52;;;;;;;15.00;1.95;;;;;;;;;;5015649;28;20021;-64
2021/11/26 12:26:31;;;;;;;12.13;2.22;;;;;;;;;;5016363;28;20034;-65
2021/11/26 12:29:00;;;;;;;8.38;1.20;;;;;;;;;;5015621;28;20021;-64
2021/11/26 12:31:35;;;;;;;15.40;1.20;;;;;;;;;;5024572;28;20030;-63
2021/11/26 12:34:07;;;;;;;7.22;1.33;;;;;;;;;;5017596;28;20164;-64
2021/11/26 12:36:44;;;;;;;21.08;2.95;;;;;;;;;;5015640;28;20025;-63
2021/11/26 12:39:21;;;;;;;13.85;1.30;;;;;;;;;;5020159;28;20427;-65
2021/11/26 12:41:50;;;;;;;9.18;1.67;;;;;;;;;;5017399;28;20052;-65
2021/11/26 12:44:20;;;;;;;10.43;1.23;;;;;;;;;;5018986;28;20017;-65
2021/11/26 12:46:46;;;;;;;6.97;1.33;;;;;;;;;;5020853;28;20326;-65
2021/11/26 12:51:47;;;;;;;8.70;0.95;;;;;;;;;;5022657;28;20071;-63
2021/11/26 12:54:26;;;;;;;10.30;0.98;;;;;;;;;;5022769;28;20113;-63
2021/11/26 12:56:53;;;;;;;16.35;1.00;;;;;;;;;;5020736;28;21039;-63
2021/11/26 12:59:32;;;;;;;10.52;1.45;;;;;;;;;;5027026;28;20128;-63
2021/11/26 13:01:59;;;;;;;7.13;0.50;;;;;;;;;;5016618;28;20482;-62
2021/11/26 13:04:24;;;;;;;4.88;0.73;;;;;;;;;;5013292;28;20036;-64
2021/11/26 13:07:07;;;;;;;5.90;0.60;;;;;;;;;;5016008;28;20034;-65
2021/11/26 13:09:46;;;;;;;2.33;0.43;;;;;;;;;;5022049;28;20029;-64
2021/11/26 13:12:13;;;;;;;5.07;0.50;;;;;;;;;;5017541;28;20033;-64
2021/11/26 13:14:46;;;;;;;4.07;0.40;;;;;;;;;;5021077;28;20033;-64
2021/11/26 13:17:12;;;;;;;3.78;0.43;;;;;;;;;;5021140;28;20032;-65
2021/11/26 13:19:38;;;;;;;4.10;0.52;;;;;;;;;;5024096;28;20049;-64
2021/11/26 13:22:03;;;;;;;10.43;1.00;;;;;;;;;;5013983;28;20034;-63
2021/11/26 13:24:29;;;;;;;5.43;1.00;;;;;;;;;;5016974;28;20404;-63
2021/11/26 13:26:59;;;;;;;8.95;1.80;;;;;;;;;;5021568;28;20087;-63
2021/11/26 13:29:26;;;;;;;12.38;1.20;;;;;;;;;;5022417;28;20029;-64
2021/11/26 13:31:55;;;;;;;14.15;2.35;;;;;;;;;;5019627;28;20038;-63
2021/11/26 13:34:20;;;;;;;12.60;2.10;;;;;;;;;;5021371;28;20061;-64
2021/11/26 13:36:46;;;;;;;13.57;1.65;;;;;;;;;;5015154;28;20457;-63
2021/11/26 13:39:13;;;;;;;7.93;1.15;;;;;;;;;;5018135;28;20362;-64
2021/11/26 13:41:41;;;;;;;8.15;0.80;;;;;;;;;;5026771;28;20045;-63
2021/11/26 13:44:15;;;;;;;9.32;1.63;;;;;;;;;;5023313;28;20033;-64
2021/11/26 13:46:43;;;;;;;15.60;1.63;;;;;;;;;;5015147;28;20030;-63
2021/11/26 13:49:17;;;;;;;7.82;1.45;;;;;;;;;;5017956;28;20638;-64
2021/11/26 13:51:47;;;;;;;17.75;2.10;;;;;;;;;;5020211;28;20056;-63
2021/11/26 13:54:16;;;;;;;9.02;2.28;;;;;;;;;;5020130;28;20029;-64
2021/11/26 13:56:45;;;;;;;18.00;1.83;;;;;;;;;;5021265;28;20496;-64
2021/11/26 13:59:19;;;;;;;16.48;1.55;;;;;;;;;;5018490;28;20463;-64
2021/11/26 14:01:45;;;;;;;11.23;1.40;;;;;;;;;;5017361;28;20392;-64
2021/11/26 14:04:22;;;;;;;14.40;1.52;;;;;;;;;;5019349;28;20025;-64
2021/11/26 14:06:53;;;;;;;8.98;1.70;;;;;;;;;;5015219;28;20033;-63
2021/11/26 14:09:19;;;;;;;11.98;2.00;;;;;;;;;;5013451;28;20029;-64
2021/11/26 14:11:49;;;;;;;10.70;2.53;;;;;;;;;;5014109;28;20041;-64
2021/11/26 14:14:25;;;;;;;7.97;1.75;;;;;;;;;;5021851;28;20045;-64
2021/11/26 14:16:57;;;;;;;10.93;1.30;;;;;;;;;;5013289;28;20624;-63
2021/11/26 14:19:33;;;;;;;8.60;1.48;;;;;;;;;;5021371;28;20045;-64
2021/11/26 14:22:02;;;;;;;11.38;1.85;;;;;;;;;;5013059;28;20026;-62
2021/11/26 14:24:42;;;;;;;12.27;1.33;;;;;;;;;;5016916;28;20022;-62
2021/11/26 14:27:10;;;;;;;4.72;1.38;;;;;;;;;;5017342;28;20033;-62
2021/11/26 14:29:50;;;;;;;8.00;1.70;;;;;;;;;;5017170;28;20025;-63
2021/11/26 14:32:16;;;;;;;26.63;1.58;;;;;;;;;;5017085;28;20067;-63
2021/11/26 14:34:44;;;;;;;10.60;1.75;;;;;;;;;;5028158;28;20455;-63
2021/11/26 14:37:10;;;;;;;15.00;1.35;;;;;;;;;;5019330;28;20029;-62
2021/11/26 14:39:37;;;;;;;19.98;1.60;;;;;;;;;;5014149;28;20045;-63
2021/11/26 14:42:12;;;;;;;15.40;1.40;;;;;;;;;;5032912;28;20047;-63
2021/11/26 14:44:55;;;;;;;5.45;1.40;;;;;;;;;;5016229;28;20034;-63
2021/11/26 14:47:40;;;;;;;8.05;1.20;;;;;;;;;;5027963;28;20040;-63
2021/11/26 14:50:18;;;;;;;13.88;1.90;;;;;;;;;;5016820;28;20480;-62